Time;durP1;ratioP1;P1;durP2;ratioP2;P2;SDS_P1;SDS_P2;PMS_P1;PMS_P2;Temp;Humidity;BMP_temperature;BMP_pressure;BME280_temperature;BME280_humidity;BME280_pressure;Samples;Min_cycle;Max_cycle;Signal;HPM_P1;HPM_P2
2023/08/07 04:01:55;;;;;;;6.20;1.90;;;13.30;99.90;;;;;;5251616;23;20043;-65
2023/08/07 04:04:21;;;;;;;5.33;1.80;;;13.20;99.90;;;;;;4956986;29;20035;-67
2023/08/07 04:06:47;;;;;;;4.37;1.73;;;13.20;99.90;;;;;;4958055;29;20035;-65
2023/08/07 04:09:12;;;;;;;5.07;1.90;;;13.30;99.90;;;;;;4957990;29;20039;-65
2023/08/07 04:11:38;;;;;;;2.80;1.63;;;13.40;99.90;;;;;;4940096;29;20031;-65
2023/08/07 04:14:03;;;;;;;3.00;1.50;;;13.40;99.90;;;;;;4957509;29;20102;-66
2023/08/07 04:16:31;;;;;;;3.10;1.50;;;13.40;99.90;;;;;;4967988;23;20044;-65
2023/08/07 04:18:56;;;;;;;5.90;1.90;;;13.40;99.90;;;;;;4938846;29;20150;-65
2023/08/07 04:21:22;;;;;;;5.07;1.30;;;13.40;99.90;;;;;;4938799;29;20038;-65
2023/08/07 04:23:48;;;;;;;2.08;1.35;;;13.50;99.90;;;;;;4938720;29;20380;-65
2023/08/07 04:26:14;;;;;;;5.80;1.50;;;13.40;99.90;;;;;;4938166;29;20027;-65
2023/08/07 04:28:40;;;;;;;5.60;1.77;;;13.30;99.90;;;;;;4938384;29;20028;-65
2023/08/07 04:31:05;;;;;;;2.70;1.63;;;13.20;99.90;;;;;;4938019;29;20034;-66
2023/08/07 04:33:31;;;;;;;6.67;1.47;;;13.20;99.90;;;;;;4939050;29;20043;-66
2023/08/07 04:35:56;;;;;;;7.30;1.67;;;13.10;99.90;;;;;;4938132;29;20079;-65
2023/08/07 04:38:22;;;;;;;4.10;1.80;;;13.20;99.90;;;;;;4938468;29;20024;-65
2023/08/07 04:40:49;;;;;;;4.43;1.70;;;13.20;99.90;;;;;;4944416;28;20077;-65
2023/08/07 04:43:16;;;;;;;3.08;1.42;;;13.20;99.90;;;;;;4957534;29;20090;-66
2023/08/07 04:45:42;;;;;;;3.03;1.30;;;13.30;99.90;;;;;;4950959;28;20035;-66
2023/08/07 04:48:08;;;;;;;3.45;1.30;;;13.40;99.90;;;;;;4940610;29;20107;-66
2023/08/07 04:50:34;;;;;;;3.63;1.83;;;13.60;99.90;;;;;;4945752;28;20058;-65
2023/08/07 04:53:00;;;;;;;4.72;1.42;;;13.50;99.90;;;;;;4952331;29;20347;-65
2023/08/07 04:55:25;;;;;;;8.30;2.23;;;13.60;99.90;;;;;;4930036;29;20074;-65
2023/08/07 04:57:54;;;;;;;4.60;1.70;;;13.70;99.90;;;;;;4958473;29;20039;-66
2023/08/07 05:00:20;;;;;;;3.05;1.48;;;13.70;99.90;;;;;;4956872;29;20766;-64
2023/08/07 05:02:47;;;;;;;5.70;1.55;;;13.70;99.90;;;;;;4948437;29;20046;-66
2023/08/07 05:05:14;;;;;;;5.35;2.33;;;13.80;99.90;;;;;;4956498;28;20028;-66
2023/08/07 05:07:40;;;;;;;3.70;1.40;;;13.70;99.90;;;;;;4956823;29;20019;-66
2023/08/07 05:10:06;;;;;;;2.40;1.63;;;13.80;99.90;;;;;;4956982;29;20540;-66
2023/08/07 05:12:32;;;;;;;4.22;1.65;;;13.90;99.90;;;;;;4939321;29;20126;-66
2023/08/07 05:14:57;;;;;;;6.37;2.27;;;13.80;99.90;;;;;;4956136;28;20082;-66
2023/08/07 05:17:23;;;;;;;5.67;1.50;;;14.00;99.90;;;;;;4956451;29;20034;-66
2023/08/07 05:19:48;;;;;;;3.93;1.50;;;14.00;99.90;;;;;;4958047;29;20031;-66
2023/08/07 05:22:15;;;;;;;4.67;1.63;;;14.10;99.90;;;;;;4957105;29;20031;-65
2023/08/07 05:24:41;;;;;;;2.53;1.20;;;14.10;99.90;;;;;;4956156;28;20051;-65
2023/08/07 05:27:10;;;;;;;2.63;1.48;;;14.10;99.90;;;;;;4956239;29;20476;-66
2023/08/07 05:29:43;;;;;;;2.88;1.67;;;14.10;99.90;;;;;;4956252;29;20070;-65
2023/08/07 05:32:09;;;;;;;5.30;1.70;;;14.20;99.90;;;;;;4956097;29;20069;-65
2023/08/07 05:34:35;;;;;;;4.68;2.92;;;14.20;99.90;;;;;;4955887;28;20027;-62
2023/08/07 05:37:00;;;;;;;5.80;2.80;;;14.20;99.90;;;;;;4955927;29;20042;-61
2023/08/07 05:39:26;;;;;;;6.17;1.60;;;14.20;99.90;;;;;;4955915;29;20134;-65
2023/08/07 05:41:53;;;;;;;3.00;1.87;;;14.30;99.90;;;;;;4955532;29;20031;-65
2023/08/07 05:44:19;;;;;;;3.10;1.50;;;14.40;99.90;;;;;;4955773;29;20015;-65
2023/08/07 05:46:44;;;;;;;6.13;1.73;;;14.40;99.90;;;;;;4955571;28;20388;-65
2023/08/07 05:49:10;;;;;;;3.17;1.40;;;14.40;99.90;;;;;;4938592;29;20034;-65
2023/08/07 05:51:35;;;;;;;3.25;1.60;;;14.50;99.90;;;;;;4955948;29;20322;-65
2023/08/07 05:54:01;;;;;;;6.07;1.50;;;14.60;99.90;;;;;;4956088;29;20401;-65
2023/08/07 05:56:27;;;;;;;7.77;2.07;;;14.60;99.90;;;;;;4955618;28;20055;-65
2023/08/07 05:58:52;;;;;;;6.20;1.60;;;14.60;99.90;;;;;;4955528;29;20298;-65
2023/08/07 06:01:18;;;;;;;6.47;1.57;;;14.60;99.90;;;;;;4955254;29;20031;-65
2023/08/07 06:03:43;;;;;;;5.20;1.60;;;14.80;99.90;;;;;;4938209;29;20070;-65
2023/08/07 06:06:09;;;;;;;3.88;1.52;;;14.80;99.90;;;;;;4955529;28;20031;-65
2023/08/07 06:08:34;;;;;;;3.73;1.60;;;14.80;99.90;;;;;;4955478;29;20059;-65
2023/08/07 06:11:03;;;;;;;3.57;1.27;;;14.80;99.90;;;;;;4955791;29;20384;-65
2023/08/07 06:13:29;;;;;;;2.53;1.50;;;14.70;99.90;;;;;;4955844;29;20023;-66
2023/08/07 06:15:54;;;;;;;3.35;1.65;;;14.70;99.90;;;;;;4955121;28;20035;-67
2023/08/07 06:18:20;;;;;;;4.43;1.60;;;14.70;99.90;;;;;;4955449;29;20392;-66
2023/08/07 06:20:46;;;;;;;4.78;1.80;;;14.80;99.90;;;;;;4938026;29;20074;-65
2023/08/07 06:23:12;;;;;;;4.43;1.85;;;14.80;99.90;;;;;;4956412;29;20035;-64
2023/08/07 06:25:38;;;;;;;4.72;1.77;;;14.60;99.90;;;;;;4955657;28;20027;-64
2023/08/07 06:28:03;;;;;;;5.57;1.50;;;14.80;99.90;;;;;;4938190;29;20075;-65
2023/08/07 06:30:30;;;;;;;4.43;1.48;;;15.00;99.90;;;;;;4938200;29;20028;-65
2023/08/07 06:32:56;;;;;;;2.75;1.52;;;15.30;99.90;;;;;;4955020;29;20034;-65
2023/08/07 06:35:22;;;;;;;3.33;1.25;;;15.50;99.90;;;;;;4955247;28;20031;-65
2023/08/07 06:37:47;;;;;;;4.35;1.55;;;15.70;99.90;;;;;;4938358;29;20039;-65
2023/08/07 06:40:13;;;;;;;4.90;1.73;;;15.80;99.90;;;;;;4955307;29;20420;-65
2023/08/07 06:42:39;;;;;;;6.68;1.60;;;16.20;99.90;;;;;;4955333;29;20054;-65
2023/08/07 06:45:05;;;;;;;;;;;16.20;99.90;;;;;;4938405;29;20066;-65
2023/08/07 06:47:31;;;;;;;2.75;1.20;;;16.30;99.90;;;;;;4954949;29;19907;-66
2023/08/07 06:49:56;;;;;;;2.70;1.30;;;16.40;99.90;;;;;;4955348;29;20085;-66
2023/08/07 06:52:22;;;;;;;3.57;1.50;;;16.30;99.90;;;;;;4955553;29;20019;-65
2023/08/07 06:54:48;;;;;;;4.37;1.63;;;16.40;99.90;;;;;;4955312;28;20392;-65
2023/08/07 06:57:14;;;;;;;2.13;1.20;;;16.50;99.90;;;;;;4955604;29;20743;-66
2023/08/07 06:59:39;;;;;;;3.72;1.60;;;16.50;99.90;;;;;;4938107;29;20046;-65
2023/08/07 07:02:06;;;;;;;8.60;2.03;;;16.60;99.90;;;;;;4955005;29;20035;-65
2023/08/07 07:04:32;;;;;;;;;;;16.40;99.90;;;;;;4955628;28;20294;-65
2023/08/07 07:06:57;;;;;;;5.05;1.33;;;16.40;99.90;;;;;;4937843;29;19906;-65
2023/08/07 07:09:23;;;;;;;3.77;1.40;;;16.30;99.90;;;;;;4955203;29;20074;-65
2023/08/07 07:11:48;;;;;;;3.67;1.50;;;16.20;99.90;;;;;;4955068;29;20031;-65
2023/08/07 07:14:14;;;;;;;6.03;1.53;;;16.30;99.90;;;;;;4956050;28;20051;-65
2023/08/07 07:16:41;;;;;;;3.25;1.70;;;16.20;99.90;;;;;;4940739;29;20286;-66
2023/08/07 07:19:08;;;;;;;4.60;2.10;;;16.30;99.90;;;;;;4958664;29;20106;-65
2023/08/07 07:21:34;;;;;;;4.40;1.52;;;16.50;99.90;;;;;;4958525;29;20020;-65
2023/08/07 07:24:01;;;;;;;4.35;1.38;;;16.60;99.90;;;;;;4958832;29;20022;-65
2023/08/07 07:26:27;;;;;;;2.55;1.40;;;16.60;99.90;;;;;;4958887;28;20085;-65
2023/08/07 07:28:52;;;;;;;2.73;1.40;;;16.70;99.90;;;;;;4958838;29;20106;-65
2023/08/07 07:31:18;;;;;;;5.37;1.60;;;16.70;99.90;;;;;;4957943;29;20270;-66
2023/08/07 07:33:43;;;;;;;10.10;1.90;;;16.70;99.90;;;;;;4958912;29;20023;-65
2023/08/07 07:36:17;;;;;;;5.00;1.27;;;16.60;99.90;;;;;;4958658;28;20281;-64
2023/08/07 07:38:44;;;;;;;8.23;1.80;;;16.50;99.90;;;;;;4941608;29;20118;-65
2023/08/07 07:41:11;;;;;;;3.58;1.25;;;16.50;99.90;;;;;;4941406;29;20114;-65
2023/08/07 07:43:37;;;;;;;5.35;1.63;;;16.40;99.90;;;;;;4941503;29;20580;-65
2023/08/07 07:46:03;;;;;;;3.70;1.52;;;16.30;99.90;;;;;;4940981;29;20050;-66
2023/08/07 07:48:29;;;;;;;4.85;1.35;;;16.20;99.90;;;;;;4958039;29;20083;-67
2023/08/07 07:51:04;;;;;;;4.73;1.50;;;16.10;99.90;;;;;;4958347;29;20043;-66
2023/08/07 07:53:30;;;;;;;3.20;1.38;;;16.10;99.90;;;;;;4958115;29;20267;-65
2023/08/07 07:55:56;;;;;;;;;;;16.10;99.90;;;;;;4958341;28;20042;-66
2023/08/07 07:58:22;;;;;;;2.63;1.27;;;16.10;99.90;;;;;;4940733;29;20430;-66
2023/08/07 08:00:47;;;;;;;3.10;1.33;;;16.20;99.90;;;;;;4957855;29;20480;-66
2023/08/07 08:03:13;;;;;;;3.70;1.17;;;16.30;99.90;;;;;;4957846;29;20400;-66
2023/08/07 08:05:39;;;;;;;4.00;1.20;;;16.30;99.90;;;;;;4957945;28;20365;-66
2023/08/07 08:08:07;;;;;;;2.30;1.17;;;16.40;99.90;;;;;;4958058;29;20031;-66
2023/08/07 08:10:34;;;;;;;5.22;1.25;;;16.30;99.90;;;;;;4958926;29;20020;-66
2023/08/07 08:12:59;;;;;;;5.03;1.27;;;16.40;99.90;;;;;;4957867;29;20034;-65
2023/08/07 08:15:25;;;;;;;4.38;1.30;;;16.60;99.90;;;;;;4958144;28;20043;-64
2023/08/07 08:17:51;;;;;;;3.13;1.50;;;16.70;99.90;;;;;;4957891;29;20039;-65
2023/08/07 08:20:18;;;;;;;5.10;1.40;;;17.00;99.90;;;;;;4941017;29;20121;-65
2023/08/07 08:22:44;;;;;;;4.47;1.10;;;17.30;99.90;;;;;;4958042;29;20395;-65
2023/08/07 08:25:11;;;;;;;4.00;1.50;;;17.40;99.90;;;;;;4958133;28;20457;-65
2023/08/07 08:27:37;;;;;;;4.57;1.58;;;17.60;99.90;;;;;;4958198;29;20030;-65
2023/08/07 08:30:03;;;;;;;3.88;1.30;;;17.70;99.90;;;;;;4958309;29;20027;-66
2023/08/07 08:32:29;;;;;;;3.78;1.20;;;17.70;99.90;;;;;;4958188;29;20110;-66
2023/08/07 08:34:55;;;;;;;4.60;1.30;;;18.10;99.90;;;;;;4964312;28;20468;-66
2023/08/07 08:37:21;;;;;;;3.58;1.33;;;19.30;99.90;;;;;;4951083;29;20628;-63
2023/08/07 08:39:47;;;;;;;3.88;1.10;;;21.80;98.10;;;;;;4943289;29;20035;-64
2023/08/07 08:42:17;;;;;;;3.92;1.02;;;24.50;93.70;;;;;;4959606;29;20472;-65
2023/08/07 08:44:48;;;;;;;1.33;1.00;;;26.40;90.10;;;;;;4958314;28;20065;-64
2023/08/07 08:47:16;;;;;;;2.85;1.00;;;26.30;86.80;;;;;;4942719;29;20019;-66
2023/08/07 08:49:47;;;;;;;3.13;1.10;;;25.70;87.10;;;;;;4959309;29;20023;-67
2023/08/07 08:52:13;;;;;;;5.93;1.30;;;25.30;87.90;;;;;;4958543;29;20058;-66
2023/08/07 08:54:40;;;;;;;4.57;1.25;;;25.90;87.10;;;;;;4957946;28;20031;-65
2023/08/07 08:57:06;;;;;;;2.58;1.25;;;26.00;85.90;;;;;;4939868;29;20448;-67
2023/08/07 08:59:33;;;;;;;2.45;1.20;;;25.20;85.60;;;;;;4956893;29;20038;-65
2023/08/07 09:01:59;;;;;;;3.60;1.10;;;24.90;86.30;;;;;;4957136;29;20030;-66
2023/08/07 09:04:24;;;;;;;;;;;24.50;86.40;;;;;;4958471;28;20101;-65
2023/08/07 09:06:50;;;;;;;3.50;1.38;;;23.80;88.50;;;;;;4957838;29;20318;-65
2023/08/07 09:09:16;;;;;;;;;;;23.90;89.40;;;;;;4958090;29;20090;-67
2023/08/07 09:11:43;;;;;;;3.30;1.30;;;25.60;85.70;;;;;;4956950;29;19953;-66
2023/08/07 09:14:12;;;;;;;3.97;1.60;;;25.60;84.70;;;;;;4957249;29;20412;-67
2023/08/07 09:16:38;;;;;;;4.03;1.30;;;26.70;82.90;;;;;;4939012;29;20128;-66
2023/08/07 09:19:04;;;;;;;;;;;27.30;80.80;;;;;;4939471;29;20031;-66
2023/08/07 09:21:30;;;;;;;2.80;1.63;;;27.70;79.10;;;;;;4956311;29;19910;-66
2023/08/07 09:23:55;;;;;;;2.63;1.25;;;27.50;79.40;;;;;;4956378;29;20370;-66
2023/08/07 09:26:25;;;;;;;1.88;1.20;;;27.70;79.10;;;;;;4956275;28;20019;-66
2023/08/07 09:28:53;;;;;;;2.55;1.17;;;28.70;75.60;;;;;;4956367;29;20034;-66
2023/08/07 09:31:20;;;;;;;4.95;1.63;;;29.60;74.40;;;;;;4956418;29;20019;-65
2023/08/07 09:33:48;;;;;;;2.13;1.30;;;29.60;71.90;;;;;;4957065;29;20114;-65
2023/08/07 09:36:13;;;;;;;3.10;1.50;;;28.90;72.30;;;;;;4958563;28;20421;-65
2023/08/07 09:38:39;;;;;;;4.85;1.35;;;27.80;73.40;;;;;;4938930;29;20023;-66
2023/08/07 09:41:05;;;;;;;3.03;1.30;;;26.50;75.80;;;;;;4955785;29;20369;-66
2023/08/07 09:43:33;;;;;;;;;;;25.70;77.00;;;;;;4956549;29;20019;-66
2023/08/07 09:46:06;;;;;;;3.72;1.50;;;25.10;78.90;;;;;;4955793;28;19913;-65
2023/08/07 09:48:34;;;;;;;3.33;1.45;;;24.30;79.90;;;;;;4955684;29;20103;-66
2023/08/07 09:51:03;;;;;;;2.80;1.17;;;23.70;80.60;;;;;;4955782;29;20027;-66
2023/08/07 09:53:30;;;;;;;3.25;1.77;;;23.00;82.00;;;;;;4956061;29;20028;-65
2023/08/07 09:55:56;;;;;;;3.33;1.35;;;22.70;82.70;;;;;;4938238;29;20034;-65
2023/08/07 09:58:22;;;;;;;4.57;1.40;;;22.70;83.90;;;;;;4955493;29;20102;-64
2023/08/07 10:00:48;;;;;;;2.92;1.60;;;22.50;83.70;;;;;;4955733;29;20545;-64
2023/08/07 10:03:14;;;;;;;2.33;1.20;;;22.60;83.80;;;;;;4955140;29;20115;-64
2023/08/07 10:05:42;;;;;;;3.60;1.35;;;23.20;83.30;;;;;;4955600;28;20539;-65
2023/08/07 10:08:08;;;;;;;3.08;1.40;;;23.60;82.20;;;;;;4938242;29;20023;-64
2023/08/07 10:10:36;;;;;;;3.50;1.30;;;24.10;81.80;;;;;;4955650;29;20033;-66
2023/08/07 10:13:02;;;;;;;4.03;1.77;;;25.40;79.90;;;;;;4938023;29;20101;-65
2023/08/07 10:15:29;;;;;;;;;;;26.40;78.00;;;;;;4976736;23;20126;-66
2023/08/07 10:17:54;;;;;;;2.08;1.27;;;26.50;76.50;;;;;;4954492;29;19910;-67
2023/08/07 10:20:20;;;;;;;;;;;26.20;76.80;;;;;;4955832;29;20034;-67
2023/08/07 10:22:46;;;;;;;1.42;1.10;;;25.40;76.80;;;;;;4938167;29;19925;-67
2023/08/07 10:25:12;;;;;;;;;;;24.70;78.10;;;;;;4955878;28;20031;-67
2023/08/07 10:27:39;;;;;;;3.83;1.30;;;23.80;79.90;;;;;;4955810;29;19913;-67
2023/08/07 10:30:08;;;;;;;4.70;1.40;;;23.60;81.30;;;;;;4956049;29;20023;-67
2023/08/07 10:32:35;;;;;;;3.75;1.40;;;24.70;78.70;;;;;;4938267;29;20055;-67
2023/08/07 10:35:05;;;;;;;2.33;1.55;;;24.70;77.40;;;;;;4956295;28;20513;-67
2023/08/07 10:37:41;;;;;;;5.55;1.60;;;23.80;79.50;;;;;;4938894;29;20035;-66
2023/08/07 10:40:12;;;;;;;3.33;1.20;;;23.00;81.70;;;;;;4938452;29;20550;-68
2023/08/07 10:42:55;;;;;;;2.95;1.13;;;22.20;81.90;;;;;;4955628;29;20369;-67
2023/08/07 10:45:22;;;;;;;3.08;1.20;;;21.50;84.40;;;;;;4955792;28;20023;-67
2023/08/07 10:48:01;;;;;;;3.35;1.25;;;21.20;85.80;;;;;;4956175;28;20027;-67
2023/08/07 10:50:34;;;;;;;2.38;1.20;;;21.00;85.20;;;;;;4947179;29;20027;-66
2023/08/07 10:53:03;;;;;;;4.72;1.75;;;20.90;85.70;;;;;;4951841;29;20031;-66
2023/08/07 10:55:46;;;;;;;4.00;1.30;;;20.70;86.00;;;;;;4951149;29;20058;-66
2023/08/07 10:58:41;;;;;;;2.70;1.30;;;20.50;86.40;;;;;;4969311;29;20030;-65
2023/08/07 11:01:19;;;;;;;4.15;1.85;;;20.10;88.10;;;;;;4941163;29;20035;-66
2023/08/07 11:03:45;;;;;;;4.15;1.13;;;20.00;89.50;;;;;;4968306;29;20028;-67
2023/08/07 11:06:11;;;;;;;2.67;1.40;;;19.90;89.30;;;;;;4965373;28;20101;-67
2023/08/07 11:08:38;;;;;;;3.50;1.40;;;19.70;90.20;;;;;;4963347;29;20031;-67
2023/08/07 11:11:05;;;;;;;3.40;1.27;;;19.70;90.20;;;;;;4942349;29;20110;-66
2023/08/07 11:13:30;;;;;;;2.63;1.13;;;19.50;90.40;;;;;;4959169;29;20023;-67
2023/08/07 11:15:57;;;;;;;4.55;1.60;;;19.40;90.80;;;;;;4959074;28;20046;-66
2023/08/07 11:18:22;;;;;;;;;;;19.30;90.80;;;;;;4942348;29;20055;-67
2023/08/07 11:20:48;;;;;;;3.72;1.25;;;19.20;91.00;;;;;;4942255;29;19945;-66
2023/08/07 11:23:14;;;;;;;1.73;1.35;;;19.20;91.20;;;;;;4959673;29;20458;-67
2023/08/07 11:25:41;;;;;;;2.90;1.20;;;19.10;91.00;;;;;;4942111;29;20027;-67
2023/08/07 11:28:08;;;;;;;2.33;1.35;;;19.20;91.20;;;;;;4959625;29;20058;-67
2023/08/07 11:30:35;;;;;;;2.80;1.35;;;19.10;91.30;;;;;;4959500;29;20020;-67
2023/08/07 11:33:00;;;;;;;5.25;2.35;;;19.10;91.70;;;;;;4958862;29;20034;-66
2023/08/07 11:35:26;;;;;;;5.68;1.30;;;19.10;91.70;;;;;;4958741;28;20027;-67
2023/08/07 11:37:54;;;;;;;4.47;1.70;;;19.20;91.90;;;;;;4958609;29;20507;-67
2023/08/07 11:40:19;;;;;;;3.15;1.40;;;19.10;92.00;;;;;;4959904;29;20019;-67
2023/08/07 11:42:45;;;;;;;2.15;1.20;;;19.20;92.10;;;;;;4958894;29;20042;-66
2023/08/07 11:45:10;;;;;;;4.20;1.43;;;19.20;92.00;;;;;;4941726;28;20396;-66
2023/08/07 11:47:36;;;;;;;2.70;1.40;;;19.40;92.00;;;;;;4940398;29;20775;-67
2023/08/07 11:50:02;;;;;;;5.45;1.50;;;19.60;92.00;;;;;;4958706;29;20035;-67
2023/08/07 11:52:28;;;;;;;3.53;1.00;;;19.70;91.80;;;;;;4959188;29;20019;-67
2023/08/07 11:54:54;;;;;;;2.28;1.33;;;19.70;90.10;;;;;;4958607;28;20028;-66
2023/08/07 11:57:22;;;;;;;2.88;1.38;;;19.70;90.10;;;;;;4960198;29;20440;-68
2023/08/07 11:59:51;;;;;;;3.50;1.30;;;19.70;90.00;;;;;;4959000;28;20027;-67
2023/08/07 12:02:23;;;;;;;2.30;1.55;;;19.80;90.00;;;;;;4941488;29;20031;-67
2023/08/07 12:04:49;;;;;;;4.50;1.50;;;20.00;89.80;;;;;;4958581;29;20023;-67
2023/08/07 12:07:19;;;;;;;3.42;1.30;;;20.00;89.10;;;;;;4957629;28;20062;-67
2023/08/07 12:09:45;;;;;;;2.75;1.33;;;20.10;88.70;;;;;;4941337;29;20031;-66
2023/08/07 12:12:11;;;;;;;3.25;1.30;;;20.20;88.40;;;;;;4958483;29;20035;-66
2023/08/07 12:14:38;;;;;;;2.97;1.30;;;20.20;88.60;;;;;;4957785;29;20420;-67
2023/08/07 12:17:04;;;;;;;3.20;1.40;;;20.30;88.80;;;;;;4957273;28;20147;-67
2023/08/07 12:19:40;;;;;;;2.05;1.33;;;20.30;89.90;;;;;;4957815;29;20454;-67
2023/08/07 12:22:08;;;;;;;2.40;1.50;;;20.50;90.00;;;;;;4957512;29;20051;-67
2023/08/07 12:24:35;;;;;;;2.10;1.40;;;20.90;88.90;;;;;;4957483;29;20019;-67
2023/08/07 12:27:01;;;;;;;4.07;1.52;;;21.00;88.50;;;;;;4957429;28;20027;-67
2023/08/07 12:29:29;;;;;;;3.00;1.40;;;21.10;88.40;;;;;;4940294;29;20082;-68
2023/08/07 12:31:55;;;;;;;3.28;1.33;;;21.40;88.30;;;;;;4957179;29;20027;-68
2023/08/07 12:34:20;;;;;;;;;;;21.50;87.20;;;;;;4957808;29;20461;-68
2023/08/07 12:36:46;;;;;;;5.85;1.67;;;21.50;87.80;;;;;;4957171;28;19907;-65
2023/08/07 12:39:12;;;;;;;3.40;1.50;;;21.50;87.30;;;;;;4957502;29;20380;-65
2023/08/07 12:41:38;;;;;;;3.20;1.40;;;21.40;88.30;;;;;;4957412;29;20031;-64
2023/08/07 12:44:04;;;;;;;2.00;1.40;;;21.30;87.90;;;;;;4939962;29;20452;-66
2023/08/07 12:46:29;;;;;;;5.30;1.73;;;21.20;89.00;;;;;;4957018;28;20071;-66
2023/08/07 12:48:55;;;;;;;4.35;1.83;;;21.20;88.50;;;;;;4957342;29;20035;-66
2023/08/07 12:51:20;;;;;;;4.88;1.75;;;21.20;88.50;;;;;;4939911;29;20044;-66
2023/08/07 12:53:47;;;;;;;3.00;1.90;;;21.20;88.50;;;;;;4957068;29;20412;-67
2023/08/07 12:56:12;;;;;;;2.47;1.45;;;21.20;88.90;;;;;;4956728;28;20082;-66
2023/08/07 12:58:38;;;;;;;4.75;1.90;;;21.30;88.80;;;;;;4939653;29;20481;-67
2023/08/07 13:01:04;;;;;;;3.97;2.15;;;21.40;87.60;;;;;;4939714;29;20333;-67
2023/08/07 13:03:30;;;;;;;3.08;1.65;;;21.60;87.60;;;;;;4956539;29;20090;-66
2023/08/07 13:05:55;;;;;;;2.72;1.80;;;21.60;87.20;;;;;;4956707;28;20023;-66
2023/08/07 13:08:21;;;;;;;3.95;1.70;;;21.60;86.80;;;;;;4939366;29;20054;-67
2023/08/07 13:10:46;;;;;;;3.05;1.70;;;21.50;86.50;;;;;;4939252;29;20114;-68
2023/08/07 13:13:12;;;;;;;4.13;1.45;;;21.30;86.50;;;;;;4956774;28;20024;-67
2023/08/07 13:15:37;;;;;;;3.00;1.70;;;21.00;86.90;;;;;;4957775;28;20094;-66
2023/08/07 13:18:03;;;;;;;4.85;1.40;;;20.80;86.80;;;;;;4956525;29;20027;-67
2023/08/07 13:20:33;;;;;;;3.42;1.98;;;20.60;87.60;;;;;;4956392;29;20421;-66
2023/08/07 13:22:58;;;;;;;4.80;1.92;;;20.80;88.50;;;;;;4956707;29;20476;-67
2023/08/07 13:25:24;;;;;;;4.70;1.88;;;21.00;87.70;;;;;;4956321;28;20034;-67
2023/08/07 13:27:50;;;;;;;3.42;1.80;;;21.00;87.10;;;;;;4956251;29;20038;-67
2023/08/07 13:30:15;;;;;;;4.47;1.40;;;21.00;86.80;;;;;;4956986;29;20028;-67
2023/08/07 13:32:41;;;;;;;5.93;2.03;;;21.00;86.60;;;;;;4939154;29;20053;-67
2023/08/07 13:35:07;;;;;;;4.25;1.60;;;21.00;86.90;;;;;;4956823;28;20053;-66
2023/08/07 13:37:33;;;;;;;3.33;1.42;;;21.20;87.40;;;;;;4957035;29;20039;-67
2023/08/07 13:39:59;;;;;;;3.28;1.63;;;21.20;88.70;;;;;;4939343;29;20023;-67
2023/08/07 13:42:26;;;;;;;3.55;1.70;;;21.10;87.70;;;;;;4956571;29;20546;-67
2023/08/07 13:44:51;;;;;;;2.88;1.90;;;21.10;88.60;;;;;;4938810;29;20481;-67
2023/08/07 13:47:17;;;;;;;3.67;1.83;;;20.90;90.60;;;;;;4955651;28;20028;-67
2023/08/07 13:49:43;;;;;;;4.25;1.70;;;20.70;91.50;;;;;;4938609;29;20508;-66
2023/08/07 13:52:09;;;;;;;4.85;2.08;;;20.30;92.10;;;;;;4955955;29;20035;-67
2023/08/07 13:54:34;;;;;;;3.63;1.98;;;20.10;92.90;;;;;;4955849;29;20137;-66
2023/08/07 13:57:00;;;;;;;4.15;1.75;;;19.90;93.00;;;;;;4938336;29;20086;-66
2023/08/07 13:59:26;;;;;;;3.63;1.55;;;19.80;93.20;;;;;;4938504;29;20082;-67
2023/08/07 14:01:52;;;;;;;4.30;1.63;;;19.80;93.40;;;;;;4955344;29;20027;-66
2023/08/07 14:04:17;;;;;;;4.63;1.48;;;19.80;93.30;;;;;;4955492;29;20094;-66
2023/08/07 14:06:44;;;;;;;2.67;1.30;;;19.90;93.40;;;;;;4955550;28;20028;-66
2023/08/07 14:09:09;;;;;;;5.43;1.98;;;20.20;93.20;;;;;;4955522;29;20496;-67
2023/08/07 14:11:36;;;;;;;3.83;1.75;;;20.50;92.60;;;;;;4955785;29;20070;-67
2023/08/07 14:14:01;;;;;;;2.90;1.80;;;20.80;92.10;;;;;;4956062;29;20118;-66
2023/08/07 14:16:27;;;;;;;3.70;2.13;;;21.00;91.80;;;;;;4955617;28;20137;-66
2023/08/07 14:18:52;;;;;;;5.22;1.92;;;21.00;91.80;;;;;;4938902;29;20027;-67
2023/08/07 14:21:18;;;;;;;2.35;1.38;;;21.00;91.60;;;;;;4955899;29;20051;-67
2023/08/07 14:23:45;;;;;;;2.08;1.40;;;20.90;91.80;;;;;;4957192;28;20419;-65
2023/08/07 14:26:11;;;;;;;3.72;1.48;;;20.70;92.10;;;;;;4938605;29;20055;-66
2023/08/07 14:28:37;;;;;;;;;;;20.70;92.40;;;;;;4955636;29;20032;-66
2023/08/07 14:31:06;;;;;;;4.20;2.20;;;20.60;92.50;;;;;;4955564;29;19912;-67
2023/08/07 14:33:32;;;;;;;4.20;1.55;;;20.50;92.70;;;;;;4937895;29;20114;-67
2023/08/07 14:35:57;;;;;;;6.65;1.60;;;20.60;92.30;;;;;;4955269;28;20102;-67
2023/08/07 14:38:23;;;;;;;4.18;1.50;;;20.60;92.20;;;;;;4938386;29;20054;-67
2023/08/07 14:40:48;;;;;;;2.08;1.45;;;20.40;92.10;;;;;;4955553;29;20388;-67
2023/08/07 14:43:14;;;;;;;3.40;1.58;;;20.40;92.30;;;;;;4955900;29;20039;-67
2023/08/07 14:45:40;;;;;;;3.85;1.90;;;20.50;92.20;;;;;;4955610;28;20106;-67
2023/08/07 14:48:06;;;;;;;2.80;1.80;;;20.60;92.30;;;;;;4955121;29;20036;-66
2023/08/07 14:50:32;;;;;;;3.17;1.73;;;20.70;92.40;;;;;;4955706;29;20015;-67
2023/08/07 14:52:58;;;;;;;4.55;1.70;;;21.00;92.20;;;;;;4955444;29;20035;-67
2023/08/07 14:55:23;;;;;;;4.80;1.95;;;21.00;91.70;;;;;;4955124;28;20035;-67
2023/08/07 14:57:49;;;;;;;3.00;1.70;;;21.00;91.80;;;;;;4955605;29;20031;-67
2023/08/07 15:00:16;;;;;;;2.90;1.30;;;21.00;91.90;;;;;;4937847;29;20039;-67
2023/08/07 15:02:42;;;;;;;3.80;1.30;;;20.90;91.80;;;;;;4937746;29;20392;-66
2023/08/07 15:05:07;;;;;;;3.03;1.45;;;20.80;91.60;;;;;;4938011;28;20019;-66
2023/08/07 15:07:34;;;;;;;3.45;1.60;;;20.80;91.90;;;;;;4937999;29;20030;-66
2023/08/07 15:09:59;;;;;;;3.63;1.50;;;20.80;92.00;;;;;;4954962;29;20030;-67
2023/08/07 15:12:25;;;;;;;3.75;1.60;;;20.80;92.30;;;;;;4955293;29;20043;-67
2023/08/07 15:14:51;;;;;;;2.38;1.58;;;20.90;92.30;;;;;;4938022;29;20027;-66
2023/08/07 15:17:16;;;;;;;3.03;1.35;;;21.00;92.00;;;;;;4954373;28;20046;-66
2023/08/07 15:19:42;;;;;;;4.38;1.70;;;21.00;92.00;;;;;;4928997;29;20031;-66
2023/08/07 15:22:07;;;;;;;2.97;1.70;;;21.10;92.00;;;;;;4936678;29;20114;-66
2023/08/07 15:24:33;;;;;;;2.40;1.40;;;21.00;91.90;;;;;;4936334;29;20118;-66
2023/08/07 15:26:58;;;;;;;4.60;1.42;;;21.10;92.00;;;;;;4935622;29;20140;-68
2023/08/07 15:29:24;;;;;;;2.30;1.33;;;21.10;91.50;;;;;;4931655;29;20047;-66
2023/08/07 15:31:49;;;;;;;3.75;1.70;;;21.10;91.50;;;;;;4954585;29;20024;-66
2023/08/07 15:34:15;;;;;;;5.13;1.63;;;21.20;91.60;;;;;;4955033;28;20036;-67
2023/08/07 15:36:40;;;;;;;2.65;1.30;;;21.20;91.10;;;;;;4949616;29;20035;-65
2023/08/07 15:39:06;;;;;;;3.55;1.50;;;21.20;91.50;;;;;;4942197;28;20397;-66
2023/08/07 15:41:32;;;;;;;2.10;1.40;;;21.20;91.40;;;;;;4956489;28;20051;-66
2023/08/07 15:43:57;;;;;;;3.20;1.30;;;21.20;91.30;;;;;;4958306;29;20388;-67
2023/08/07 15:46:23;;;;;;;2.42;1.50;;;21.20;91.50;;;;;;4958309;29;20031;-67
2023/08/07 15:48:50;;;;;;;4.97;1.60;;;21.20;91.70;;;;;;4957420;29;20028;-67
2023/08/07 15:51:15;;;;;;;2.70;1.58;;;21.20;91.90;;;;;;4958264;29;20415;-66
2023/08/07 15:53:41;;;;;;;3.67;1.50;;;21.30;91.50;;;;;;4940980;29;20024;-66
2023/08/07 15:56:07;;;;;;;1.80;1.30;;;21.30;90.80;;;;;;4958098;28;20028;-66
2023/08/07 15:58:33;;;;;;;2.13;1.50;;;21.30;90.90;;;;;;4941119;29;20472;-66
2023/08/07 16:00:58;;;;;;;2.67;1.42;;;21.30;90.20;;;;;;4940772;29;20054;-66
2023/08/07 16:03:24;;;;;;;2.50;2.00;;;21.40;90.30;;;;;;4956709;29;20054;-66
2023/08/07 16:05:49;;;;;;;1.80;1.30;;;21.30;90.40;;;;;;4940938;29;20055;-66
2023/08/07 16:08:15;;;;;;;2.90;1.20;;;21.20;90.60;;;;;;4958233;29;20031;-66
2023/08/07 16:10:41;;;;;;;4.75;1.85;;;21.10;90.60;;;;;;4958869;29;20069;-67
2023/08/07 16:13:07;;;;;;;2.90;1.55;;;21.00;90.60;;;;;;4960654;29;20066;-67
2023/08/07 16:15:33;;;;;;;2.33;1.60;;;21.00;90.60;;;;;;4964216;23;20063;-62
2023/08/07 16:18:01;;;;;;;3.83;1.42;;;20.80;90.90;;;;;;4955904;29;20067;-61
2023/08/07 16:20:27;;;;;;;3.60;1.20;;;20.80;91.30;;;;;;4929446;29;20027;-61
2023/08/07 16:22:53;;;;;;;5.13;1.70;;;20.80;91.10;;;;;;4938673;29;20507;-63
2023/08/07 16:25:18;;;;;;;2.13;1.30;;;20.70;93.10;;;;;;4938352;29;20031;-62
2023/08/07 16:27:45;;;;;;;2.38;1.42;;;20.70;91.50;;;;;;4938194;29;20024;-61
2023/08/07 16:30:11;;;;;;;4.00;1.58;;;20.50;91.60;;;;;;4921098;29;20035;-60
2023/08/07 16:32:38;;;;;;;2.33;1.40;;;20.40;92.10;;;;;;4920782;29;20400;-60
2023/08/07 16:35:05;;;;;;;2.80;1.40;;;20.40;91.90;;;;;;4938712;29;20036;-61
2023/08/07 16:37:31;;;;;;;4.55;1.38;;;20.40;92.00;;;;;;4928142;29;20031;-62
2023/08/07 16:39:57;;;;;;;2.00;1.30;;;20.50;92.00;;;;;;4939896;29;20035;-62
2023/08/07 16:42:22;;;;;;;2.88;1.40;;;20.60;92.10;;;;;;4939819;29;20039;-62
2023/08/07 16:44:49;;;;;;;2.13;1.30;;;20.50;92.40;;;;;;4957448;29;20051;-65
2023/08/07 16:47:15;;;;;;;;;;;20.70;92.40;;;;;;4939655;29;20020;-60